createdAt,value
2023-04-12T00:00:23.836Z,7.05
2023-04-12T00:01:23.839Z,7.02
2023-04-12T00:02:23.975Z,7.03
2023-04-12T00:03:23.891Z,7.03
2023-04-12T00:04:24.792Z,7.03
2023-04-12T00:05:23.812Z,6.99
2023-04-12T00:06:23.771Z,7.03
2023-04-12T00:07:23.769Z,6.98
2023-04-12T00:08:23.907Z,7.02
2023-04-12T00:09:23.742Z,6.99
2023-04-12T00:10:23.732Z,6.98
2023-04-12T00:11:23.717Z,6.97
2023-04-12T00:12:23.726Z,6.94
2023-04-12T00:13:23.714Z,6.95
2023-04-12T00:14:23.692Z,6.95
2023-04-12T00:15:23.689Z,6.95
2023-04-12T00:16:23.725Z,6.95
2023-04-12T00:17:23.708Z,6.98
2023-04-12T00:18:23.644Z,6.97
2023-04-12T00:19:23.799Z,6.97
2023-04-12T00:20:23.620Z,6.92
2023-04-12T00:21:23.616Z,6.95
2023-04-12T00:22:23.604Z,6.91
2023-04-12T00:23:23.610Z,6.92
2023-04-12T00:24:23.581Z,6.92
2023-04-12T00:25:23.579Z,6.91
2023-04-12T00:26:24.383Z,6.91
2023-04-12T00:27:23.568Z,6.92
2023-04-12T00:28:23.541Z,6.92
2023-04-12T00:29:23.559Z,6.94
2023-04-12T00:30:23.517Z,6.94
2023-04-12T00:31:23.556Z,6.92
2023-04-12T00:32:23.562Z,6.91
2023-04-12T00:33:23.497Z,6.91
2023-04-12T00:34:23.482Z,6.94
2023-04-12T00:35:23.474Z,6.92
2023-04-12T00:36:23.461Z,6.88
2023-04-12T00:37:23.445Z,6.92
2023-04-12T00:38:23.452Z,6.94
2023-04-12T00:39:23.427Z,6.91
2023-04-12T00:40:23.410Z,6.91
2023-04-12T00:41:23.432Z,6.88
2023-04-12T00:42:23.386Z,6.91
2023-04-12T00:43:23.394Z,6.89
2023-04-12T00:44:23.371Z,6.89
2023-04-12T00:45:23.368Z,6.85
2023-04-12T00:46:23.388Z,6.87
2023-04-12T00:47:23.387Z,6.85
2023-04-12T00:48:23.319Z,6.81
2023-04-12T00:49:23.327Z,6.81
2023-04-12T00:50:23.301Z,6.80
2023-04-12T00:51:23.296Z,6.84
2023-04-12T00:52:23.281Z,6.84
2023-04-12T00:53:23.284Z,6.85
2023-04-12T00:54:23.294Z,6.85
2023-04-12T00:55:23.266Z,6.85
2023-04-12T00:56:23.239Z,6.85
2023-04-12T00:57:23.254Z,6.89
2023-04-12T00:58:23.457Z,6.89
2023-04-12T00:59:23.208Z,6.91
2023-04-12T01:00:23.215Z,6.89
2023-04-12T01:01:23.248Z,6.88
2023-04-12T01:02:23.477Z,6.92
2023-04-12T01:03:23.806Z,6.94
2023-04-12T01:04:23.155Z,6.91
2023-04-12T01:05:23.156Z,6.91
2023-04-12T01:06:23.138Z,6.87
2023-04-12T01:07:23.120Z,6.88
2023-04-12T01:08:23.103Z,6.87
2023-04-12T01:09:23.100Z,6.85
2023-04-12T01:10:23.091Z,6.84
2023-04-12T01:11:23.080Z,6.85
2023-04-12T01:12:23.061Z,6.84
2023-04-12T01:13:23.086Z,6.85
2023-04-12T01:14:23.051Z,6.84
2023-04-12T01:15:23.093Z,6.81
2023-04-12T01:16:23.074Z,6.81
2023-04-12T01:17:23.037Z,6.84
2023-04-12T01:18:23.024Z,6.87
2023-04-12T01:19:22.995Z,6.81
2023-04-12T01:20:22.987Z,6.84
2023-04-12T01:21:22.975Z,6.84
2023-04-12T01:22:22.961Z,6.84
2023-04-12T01:23:22.948Z,6.81
2023-04-12T01:24:23.609Z,6.81
2023-04-12T01:25:22.946Z,6.81
2023-04-12T01:26:22.976Z,6.84
2023-04-12T01:27:22.920Z,6.80
2023-04-12T01:28:22.889Z,6.85
2023-04-12T01:29:22.884Z,6.84
2023-04-12T01:30:23.690Z,6.85
2023-04-12T01:31:22.907Z,6.87
2023-04-12T01:32:22.880Z,6.87
2023-04-12T01:33:22.851Z,6.87
2023-04-12T01:34:22.824Z,6.87
2023-04-12T01:35:22.862Z,6.85
2023-04-12T01:36:22.826Z,6.87
2023-04-12T01:37:22.809Z,6.87
2023-04-12T01:38:22.786Z,6.85
2023-04-12T01:39:22.778Z,6.87
2023-04-12T01:40:22.791Z,6.88
2023-04-12T01:41:22.766Z,6.89
2023-04-12T01:42:23.103Z,6.91
2023-04-12T01:43:22.753Z,6.94
2023-04-12T01:44:22.724Z,6.88
2023-04-12T01:45:22.772Z,6.89
2023-04-12T01:46:22.727Z,6.92
2023-04-12T01:47:22.786Z,6.91
2023-04-12T01:48:22.715Z,6.92
2023-04-12T01:49:22.677Z,6.88
2023-04-12T01:50:22.699Z,6.89
2023-04-12T01:51:22.649Z,6.89
2023-04-12T01:52:22.645Z,6.88
2023-04-12T01:53:22.633Z,6.91
2023-04-12T01:54:22.620Z,6.91
2023-04-12T01:55:22.620Z,6.97
2023-04-12T01:56:22.594Z,6.95
2023-04-12T01:57:22.898Z,6.95
2023-04-12T01:58:22.580Z,6.98
2023-04-12T01:59:22.578Z,6.94
2023-04-12T02:00:22.555Z,6.95
2023-04-12T02:01:22.645Z,6.92
2023-04-12T02:02:22.640Z,6.95
2023-04-12T02:03:22.594Z,6.94
2023-04-12T02:04:22.512Z,6.98
2023-04-12T02:05:22.509Z,6.97
2023-04-12T02:06:22.492Z,6.97
2023-04-12T02:07:22.479Z,6.97
2023-04-12T02:08:22.461Z,6.97
2023-04-12T02:09:22.464Z,6.97
2023-04-12T02:10:22.459Z,6.95
2023-04-12T02:11:22.435Z,6.95
2023-04-12T02:12:22.428Z,6.95
2023-04-12T02:13:22.409Z,6.95
2023-04-12T02:14:22.399Z,6.92
2023-04-12T02:15:22.411Z,6.97
2023-04-12T02:16:22.406Z,6.94
2023-04-12T02:17:22.374Z,6.97
2023-04-12T02:18:22.355Z,6.95
2023-04-12T02:19:22.366Z,6.94
2023-04-12T02:20:22.353Z,6.91
2023-04-12T02:21:22.328Z,6.89
2023-04-12T02:22:22.318Z,6.91
2023-04-12T02:23:22.322Z,6.87
2023-04-12T02:24:22.798Z,6.88
2023-04-12T02:25:22.296Z,6.89
2023-04-12T02:26:22.269Z,6.88
2023-04-12T02:27:22.266Z,6.89
2023-04-12T02:28:22.253Z,6.95
2023-04-12T02:29:22.251Z,6.99
2023-04-12T02:30:22.236Z,7.06
2023-04-12T02:31:22.261Z,7.06
2023-04-12T02:32:22.201Z,7.06
2023-04-12T02:33:22.207Z,7.05
2023-04-12T02:34:22.177Z,7.03
2023-04-12T02:35:22.227Z,7.02
2023-04-12T02:36:22.169Z,6.98
2023-04-12T02:37:22.184Z,6.97
2023-04-12T02:38:22.147Z,6.94
2023-04-12T02:39:22.375Z,6.95
2023-04-12T02:40:22.133Z,6.92
2023-04-12T02:41:22.119Z,6.92
2023-04-12T02:42:22.099Z,6.94
2023-04-12T02:43:22.089Z,6.92
2023-04-12T02:44:22.076Z,6.92
2023-04-12T02:45:22.072Z,6.91
2023-04-12T02:46:22.073Z,6.92
2023-04-12T02:47:22.046Z,6.89
2023-04-12T02:48:22.022Z,6.92
2023-04-12T02:49:22.033Z,6.89
2023-04-12T02:50:22.007Z,6.91
2023-04-12T02:51:22.061Z,6.91
2023-04-12T02:52:21.991Z,6.92
2023-04-12T02:53:21.988Z,6.89
2023-04-12T02:54:21.964Z,6.91
2023-04-12T02:55:21.988Z,6.88
2023-04-12T02:56:21.962Z,6.89
2023-04-12T02:57:21.938Z,6.88
2023-04-12T02:58:21.922Z,6.89
2023-04-12T02:59:21.922Z,6.89
2023-04-12T03:00:21.915Z,6.91
2023-04-12T03:01:21.924Z,6.94
2023-04-12T03:02:22.016Z,6.92
2023-04-12T03:03:22.203Z,6.92
2023-04-12T03:04:22.324Z,6.92
2023-04-12T03:05:21.862Z,6.92
2023-04-12T03:06:21.839Z,6.91
2023-04-12T03:07:21.833Z,6.91
2023-04-12T03:08:21.836Z,6.91
2023-04-12T03:09:21.813Z,6.94
2023-04-12T03:10:21.801Z,6.97
2023-04-12T03:11:21.794Z,6.98
2023-04-12T03:12:21.777Z,6.99
2023-04-12T03:13:21.774Z,6.99
2023-04-12T03:14:22.176Z,6.99
2023-04-12T03:15:21.748Z,7.02
2023-04-12T03:16:22.103Z,7.02
2023-04-12T03:17:21.761Z,7.03
2023-04-12T03:18:21.824Z,7.03
2023-04-12T03:19:21.719Z,7.05
2023-04-12T03:20:21.691Z,7.07
2023-04-12T03:21:21.677Z,7.09
2023-04-12T03:22:21.675Z,7.12
2023-04-12T03:23:22.478Z,7.10
2023-04-12T03:24:21.648Z,7.09
2023-04-12T03:25:21.652Z,7.09
2023-04-12T03:26:21.621Z,7.09
2023-04-12T03:27:21.629Z,7.09
2023-04-12T03:28:21.788Z,7.06
2023-04-12T03:29:21.595Z,7.13
2023-04-12T03:30:21.580Z,7.16
2023-04-12T03:31:21.673Z,7.16
2023-04-12T03:32:21.585Z,7.16
2023-04-12T03:33:21.562Z,7.20
2023-04-12T03:34:21.554Z,7.20
2023-04-12T03:35:21.572Z,7.20
2023-04-12T03:36:21.537Z,7.17
2023-04-12T03:37:21.566Z,7.21
2023-04-12T03:38:21.496Z,7.20
2023-04-12T03:39:21.486Z,7.20
2023-04-12T03:40:21.489Z,7.17
2023-04-12T03:41:21.462Z,7.16
2023-04-12T03:42:32.252Z,7.15
2023-04-12T03:43:22.447Z,7.15
2023-04-12T03:44:21.446Z,7.13
2023-04-12T03:45:21.458Z,7.13
2023-04-12T03:46:21.443Z,7.13
2023-04-12T03:47:21.457Z,7.13
2023-04-12T03:48:21.387Z,7.09
2023-04-12T03:49:21.379Z,7.13
2023-04-12T03:50:21.377Z,7.13
2023-04-12T03:51:21.378Z,7.12
2023-04-12T03:52:21.352Z,7.07
2023-04-12T03:53:21.391Z,7.09
2023-04-12T03:54:21.324Z,7.06
2023-04-12T03:55:21.398Z,7.06
2023-04-12T03:56:21.343Z,7.09
2023-04-12T03:57:21.301Z,7.06
2023-04-12T03:58:21.341Z,7.09
2023-04-12T03:59:21.302Z,7.09
2023-04-12T04:00:21.319Z,7.10
2023-04-12T04:01:21.305Z,7.13
2023-04-12T04:02:21.422Z,7.20
2023-04-12T04:03:21.290Z,7.17
2023-04-12T04:04:21.339Z,7.17
2023-04-12T04:05:21.212Z,7.15
2023-04-12T04:06:21.198Z,7.13
2023-04-12T04:07:21.188Z,7.16
2023-04-12T04:08:21.198Z,7.17
2023-04-12T04:09:21.167Z,7.21
2023-04-12T04:10:21.160Z,7.21
2023-04-12T04:11:21.163Z,7.17
2023-04-12T04:12:21.134Z,7.20
2023-04-12T04:13:21.373Z,7.16
2023-04-12T04:14:21.111Z,7.13
2023-04-12T04:15:21.095Z,7.12
2023-04-12T04:16:21.122Z,7.12
2023-04-12T04:17:21.127Z,7.10
2023-04-12T04:18:21.071Z,7.10
2023-04-12T04:19:21.063Z,7.13
2023-04-12T04:20:21.072Z,7.13
2023-04-12T04:21:21.038Z,7.10
2023-04-12T04:22:21.041Z,7.12
2023-04-12T04:23:21.011Z,7.15
2023-04-12T04:24:21.005Z,7.10
2023-04-12T04:25:20.999Z,7.12
2023-04-12T04:26:20.989Z,7.10
2023-04-12T04:27:20.969Z,7.13
2023-04-12T04:28:20.975Z,7.13
2023-04-12T04:29:20.960Z,7.17
2023-04-12T04:30:20.938Z,7.16
2023-04-12T04:31:20.934Z,7.17
2023-04-12T04:32:20.954Z,7.13
2023-04-12T04:33:20.910Z,7.15
2023-04-12T04:34:20.909Z,7.20
2023-04-12T04:35:20.921Z,7.16
2023-04-12T04:36:20.879Z,7.21
2023-04-12T04:37:20.869Z,7.20
2023-04-12T04:38:20.860Z,7.20
2023-04-12T04:39:20.845Z,7.21
2023-04-12T04:40:20.842Z,7.16
2023-04-12T04:41:20.828Z,7.20
2023-04-12T04:42:20.813Z,7.17
2023-04-12T04:43:20.805Z,7.21
2023-04-12T04:44:20.798Z,7.17
2023-04-12T04:45:21.623Z,7.17
2023-04-12T04:46:20.853Z,7.16
2023-04-12T04:47:20.756Z,7.15
2023-04-12T04:48:20.752Z,7.17
2023-04-12T04:49:20.791Z,7.16
2023-04-12T04:50:20.736Z,7.13
2023-04-12T04:51:20.727Z,7.13
2023-04-12T04:52:20.713Z,7.12
2023-04-12T04:53:21.526Z,7.12
2023-04-12T04:54:21.508Z,7.15
2023-04-12T04:55:20.684Z,7.15
2023-04-12T04:56:20.678Z,7.13
2023-04-12T04:57:21.147Z,7.13
2023-04-12T04:58:20.643Z,7.15
2023-04-12T04:59:20.628Z,7.16
2023-04-12T05:00:20.622Z,7.17
2023-04-12T05:01:20.705Z,7.15
2023-04-12T05:02:20.631Z,7.13
2023-04-12T05:03:20.683Z,7.16
2023-04-12T05:04:20.638Z,7.15
2023-04-12T05:05:20.570Z,7.15
2023-04-12T05:06:20.554Z,7.16
2023-04-12T05:07:20.557Z,7.20
2023-04-12T05:08:20.535Z,7.16
2023-04-12T05:09:20.521Z,7.16
2023-04-12T05:10:20.511Z,7.16
2023-04-12T05:11:20.499Z,7.15
2023-04-12T05:12:20.496Z,7.20
2023-04-12T05:13:20.490Z,7.20
2023-04-12T05:14:20.510Z,7.24
2023-04-12T05:15:20.461Z,7.23
2023-04-12T05:16:20.499Z,7.23
2023-04-12T05:17:20.502Z,7.27
2023-04-12T05:18:20.428Z,7.24
2023-04-12T05:19:20.421Z,7.24
2023-04-12T05:20:20.447Z,7.24
2023-04-12T05:21:21.031Z,7.27
2023-04-12T05:22:20.446Z,7.27
2023-04-12T05:23:20.397Z,7.27
2023-04-12T05:24:20.362Z,7.25
2023-04-12T05:25:21.155Z,7.27
2023-04-12T05:26:20.337Z,7.25
2023-04-12T05:27:20.325Z,7.25
2023-04-12T05:28:20.311Z,7.28
2023-04-12T05:29:20.327Z,7.30
2023-04-12T05:30:20.304Z,7.31
2023-04-12T05:31:21.586Z,7.35
2023-04-12T05:32:20.314Z,7.32
2023-04-12T05:33:20.274Z,7.40
2023-04-12T05:34:20.411Z,7.39
2023-04-12T05:35:20.275Z,7.43
2023-04-12T05:36:20.233Z,7.45
2023-04-12T05:37:20.262Z,7.45
2023-04-12T05:38:20.210Z,7.45
2023-04-12T05:39:20.784Z,7.48
2023-04-12T05:40:20.194Z,7.46
2023-04-12T05:41:20.183Z,7.50
2023-04-12T05:42:20.167Z,7.52
2023-04-12T05:43:20.169Z,7.52
2023-04-12T05:44:20.151Z,7.53
2023-04-12T05:45:20.149Z,7.55
2023-04-12T05:46:20.164Z,7.55
2023-04-12T05:47:20.118Z,7.57
2023-04-12T05:48:20.142Z,7.60
2023-04-12T05:49:20.104Z,7.58
2023-04-12T05:50:20.080Z,7.60
2023-04-12T05:51:27.834Z,7.64
2023-04-12T05:52:21.068Z,7.67
2023-04-12T05:53:20.060Z,7.63
2023-04-12T05:54:20.037Z,7.63
2023-04-12T05:55:20.025Z,7.64
2023-04-12T05:56:20.022Z,7.67
2023-04-12T05:57:20.021Z,7.68
2023-04-12T05:58:20.008Z,7.69
2023-04-12T05:59:19.982Z,7.68
2023-04-12T06:00:19.980Z,7.67
2023-04-12T06:01:19.969Z,7.69
2023-04-12T06:02:20.058Z,7.71
2023-04-12T06:03:20.053Z,7.71
2023-04-12T06:04:20.185Z,7.72
2023-04-12T06:05:19.994Z,7.71
2023-04-12T06:06:19.911Z,7.75
2023-04-12T06:07:19.897Z,7.75
2023-04-12T06:08:19.896Z,7.77
2023-04-12T06:09:19.891Z,7.79
2023-04-12T06:10:19.892Z,7.79
2023-04-12T06:11:19.862Z,7.85
2023-04-12T06:12:19.862Z,7.86
2023-04-12T06:13:19.833Z,7.85
2023-04-12T06:14:19.829Z,7.85
2023-04-12T06:15:19.813Z,7.89
2023-04-12T06:16:19.868Z,7.90
2023-04-12T06:17:20.606Z,7.92
2023-04-12T06:18:19.783Z,7.97
2023-04-12T06:19:19.766Z,8.02
2023-04-12T06:20:19.768Z,8.01
2023-04-12T06:21:19.761Z,8.01
2023-04-12T06:22:19.744Z,8.04
2023-04-12T06:23:19.754Z,8.07
2023-04-12T06:24:19.722Z,8.12
2023-04-12T06:25:19.739Z,8.18
2023-04-12T06:26:19.714Z,8.19
2023-04-12T06:27:19.691Z,8.25
2023-04-12T06:28:19.899Z,8.33
2023-04-12T06:29:20.478Z,8.36
2023-04-12T06:30:19.665Z,8.41
2023-04-12T06:31:19.651Z,8.45
2023-04-12T06:32:19.645Z,8.47
2023-04-12T06:33:19.704Z,8.52
2023-04-12T06:34:19.608Z,8.56
2023-04-12T06:35:19.588Z,8.62
2023-04-12T06:36:19.589Z,8.65
2023-04-12T06:37:19.584Z,8.65
2023-04-12T06:38:20.376Z,8.62
2023-04-12T06:39:19.546Z,8.66
2023-04-12T06:40:19.719Z,8.65
2023-04-12T06:41:19.545Z,8.70
2023-04-12T06:42:19.540Z,8.71
2023-04-12T06:43:19.506Z,8.68
2023-04-12T06:44:19.496Z,8.71
2023-04-12T06:45:19.482Z,8.76
2023-04-12T06:46:19.486Z,8.79
2023-04-12T06:47:19.460Z,8.80
2023-04-12T06:48:19.472Z,8.84
2023-04-12T06:49:19.439Z,8.86
2023-04-12T06:50:19.438Z,8.84
2023-04-12T06:51:19.419Z,8.86
2023-04-12T06:52:19.422Z,8.86
2023-04-12T06:53:19.404Z,8.89
2023-04-12T06:54:19.398Z,8.96
2023-04-12T06:55:19.382Z,9.02
2023-04-12T06:56:19.379Z,9.13
2023-04-12T06:57:19.354Z,9.18
2023-04-12T06:58:19.362Z,9.21
2023-04-12T06:59:19.361Z,9.23
2023-04-12T07:00:19.330Z,9.33
2023-04-12T07:01:19.368Z,9.33
2023-04-12T07:02:19.380Z,9.33
2023-04-12T07:03:19.352Z,9.33
2023-04-12T07:04:19.457Z,9.35
2023-04-12T07:05:19.276Z,9.39
2023-04-12T07:06:25.479Z,9.43
2023-04-12T07:07:20.249Z,9.50
2023-04-12T07:08:19.246Z,9.58
2023-04-12T07:09:19.243Z,9.60
2023-04-12T07:10:19.221Z,9.66
2023-04-12T07:11:21.908Z,9.72
2023-04-12T07:12:19.231Z,9.69
2023-04-12T07:13:20.156Z,9.78
2023-04-12T07:14:19.180Z,9.89
2023-04-12T07:15:19.167Z,9.90
2023-04-12T07:16:19.199Z,9.86
2023-04-12T07:17:19.185Z,9.94
2023-04-12T07:18:19.141Z,9.91
2023-04-12T07:19:19.948Z,10.05
2023-04-12T07:20:19.120Z,10.15
2023-04-12T07:21:19.108Z,10.26
2023-04-12T07:22:19.108Z,10.26
2023-04-12T07:23:19.902Z,10.23
2023-04-12T07:24:19.080Z,10.38
2023-04-12T07:25:19.059Z,10.36
2023-04-12T07:26:19.054Z,10.44
2023-04-12T07:27:19.069Z,10.52
2023-04-12T07:28:19.040Z,10.64
2023-04-12T07:29:19.026Z,10.61
2023-04-12T07:30:19.025Z,10.60
2023-04-12T07:31:19.236Z,10.71
2023-04-12T07:32:19.031Z,10.84
2023-04-12T07:33:20.085Z,10.82
2023-04-12T07:34:19.061Z,10.76
2023-04-12T07:35:18.966Z,10.84
2023-04-12T07:36:18.984Z,10.85
2023-04-12T07:37:18.939Z,10.82
2023-04-12T07:38:18.931Z,10.76
2023-04-12T07:39:18.946Z,10.82
2023-04-12T07:40:18.897Z,10.81
2023-04-12T07:41:18.900Z,10.82
2023-04-12T07:42:18.902Z,10.70
2023-04-12T07:43:18.872Z,10.78
2023-04-12T07:44:18.859Z,10.84
2023-04-12T07:45:18.854Z,10.66
2023-04-12T07:46:18.905Z,10.79
2023-04-12T07:47:18.842Z,10.94
2023-04-12T07:48:18.811Z,10.94
2023-04-12T07:49:18.810Z,11.03
2023-04-12T07:50:18.885Z,11.28
2023-04-12T07:51:18.790Z,11.46
2023-04-12T07:52:18.780Z,11.58
2023-04-12T07:53:18.770Z,11.62
2023-04-12T07:54:18.758Z,11.79
2023-04-12T07:55:18.749Z,11.91
2023-04-12T07:56:18.727Z,11.86
2023-04-12T07:57:18.724Z,11.85
2023-04-12T07:58:18.728Z,11.96
2023-04-12T07:59:18.700Z,12.01
2023-04-12T08:00:18.780Z,12.01
2023-04-12T08:01:18.689Z,12.16
2023-04-12T08:02:18.788Z,12.01
2023-04-12T08:03:18.786Z,12.16
2023-04-12T08:04:18.730Z,12.16
2023-04-12T08:05:18.649Z,12.28
2023-04-12T08:06:18.650Z,12.42
2023-04-12T08:07:18.616Z,12.49
2023-04-12T08:08:18.604Z,12.37
2023-04-12T08:09:18.593Z,12.32
2023-04-12T08:10:18.589Z,12.35
2023-04-12T08:11:18.579Z,12.37
2023-04-12T08:12:18.590Z,12.24
2023-04-12T08:13:18.553Z,12.28
2023-04-12T08:14:18.536Z,12.32
2023-04-12T08:15:18.536Z,12.38
2023-04-12T08:16:18.690Z,12.47
2023-04-12T08:17:18.501Z,12.62
2023-04-12T08:18:18.494Z,12.65
2023-04-12T08:19:18.507Z,12.71
2023-04-12T08:20:18.486Z,12.82
2023-04-12T08:21:18.463Z,13.04
2023-04-12T08:22:18.465Z,13.19
2023-04-12T08:23:19.257Z,13.12
2023-04-12T08:24:18.427Z,13.19
2023-04-12T08:25:18.427Z,13.20
2023-04-12T08:26:18.409Z,13.32
2023-04-12T08:27:18.404Z,13.41
2023-04-12T08:28:18.404Z,13.64
2023-04-12T08:29:18.376Z,13.79
2023-04-12T08:30:18.381Z,13.82
2023-04-12T08:31:18.413Z,13.95
2023-04-12T08:32:18.575Z,14.00
2023-04-12T08:33:18.340Z,14.21
2023-04-12T08:34:18.332Z,14.27
2023-04-12T08:35:18.317Z,14.29
2023-04-12T08:36:18.353Z,14.25
2023-04-12T08:37:18.288Z,14.17
2023-04-12T08:38:18.278Z,14.33
2023-04-12T08:39:18.266Z,14.47
2023-04-12T08:40:18.262Z,14.36
2023-04-12T08:41:18.244Z,14.12
2023-04-12T08:42:18.235Z,14.03
2023-04-12T08:43:18.231Z,14.12
2023-04-12T08:44:18.210Z,14.28
2023-04-12T08:45:18.203Z,14.42
2023-04-12T08:46:18.228Z,14.52
2023-04-12T08:47:18.485Z,14.52
2023-04-12T08:48:18.211Z,14.51
2023-04-12T08:49:18.218Z,14.33
2023-04-12T08:50:18.141Z,14.37
2023-04-12T08:51:18.159Z,14.51
2023-04-12T08:52:18.140Z,14.60
2023-04-12T08:53:18.114Z,14.84
2023-04-12T08:54:18.102Z,14.89
2023-04-12T08:55:18.093Z,15.09
2023-04-12T08:56:18.088Z,15.27
2023-04-12T08:57:18.069Z,15.46
2023-04-12T08:58:18.061Z,15.60
2023-04-12T08:59:18.051Z,15.65
2023-04-12T09:00:18.054Z,15.80
2023-04-12T09:01:18.205Z,15.67
2023-04-12T09:02:18.134Z,15.68
2023-04-12T09:03:18.287Z,15.50
2023-04-12T09:04:18.428Z,15.47
2023-04-12T09:05:18.250Z,15.34
2023-04-12T09:06:17.975Z,15.28
2023-04-12T09:07:17.966Z,15.16
2023-04-12T09:08:17.980Z,14.98
2023-04-12T09:09:17.945Z,14.86
2023-04-12T09:10:17.938Z,15.02
2023-04-12T09:11:17.921Z,15.09
2023-04-12T09:12:17.917Z,15.27
2023-04-12T09:13:17.910Z,15.29
2023-04-12T09:14:17.910Z,15.32
2023-04-12T09:15:17.910Z,15.46
2023-04-12T09:16:17.910Z,15.46
2023-04-12T09:17:17.851Z,15.39
2023-04-12T09:18:17.895Z,15.59
2023-04-12T09:19:17.842Z,15.75
2023-04-12T09:20:17.965Z,15.89
2023-04-12T09:21:17.807Z,16.07
2023-04-12T09:22:17.814Z,15.93
2023-04-12T09:23:17.804Z,16.01
2023-04-12T09:24:17.775Z,16.21
2023-04-12T09:25:17.782Z,16.08
2023-04-12T09:26:17.757Z,16.28
2023-04-12T09:27:17.751Z,16.20
2023-04-12T09:28:17.738Z,16.20
2023-04-12T09:29:17.748Z,16.14
2023-04-12T09:30:17.826Z,16.28
2023-04-12T09:31:17.739Z,16.48
2023-04-12T09:32:17.710Z,16.64
2023-04-12T09:33:17.691Z,16.50
2023-04-12T09:34:17.691Z,16.73
2023-04-12T09:35:17.674Z,16.98
2023-04-12T09:36:17.663Z,16.78
2023-04-12T09:37:18.459Z,16.70
2023-04-12T09:38:17.629Z,16.58
2023-04-12T09:39:17.622Z,16.70
2023-04-12T09:40:17.652Z,16.71
2023-04-12T09:41:20.191Z,16.68
2023-04-12T09:42:32.604Z,16.79
2023-04-12T09:43:18.574Z,16.93
2023-04-12T09:44:17.575Z,16.85
2023-04-12T09:45:18.362Z,17.19
2023-04-12T09:46:17.622Z,17.41
2023-04-12T09:47:17.552Z,17.52
2023-04-12T09:48:17.519Z,17.72
2023-04-12T09:49:17.517Z,17.74
2023-04-12T09:50:17.548Z,17.82
2023-04-12T09:51:17.507Z,17.72
2023-04-12T09:52:17.505Z,17.81
2023-04-12T09:53:17.495Z,17.70
2023-04-12T09:54:17.468Z,17.68
2023-04-12T09:55:17.552Z,17.63
2023-04-12T09:56:17.440Z,17.66
2023-04-12T09:57:17.439Z,17.25
2023-04-12T09:58:17.423Z,17.33
2023-04-12T09:59:17.500Z,17.49
2023-04-12T10:00:18.099Z,17.84
2023-04-12T10:01:17.795Z,18.11
2023-04-12T10:02:17.543Z,18.45
2023-04-12T10:03:17.525Z,18.33
2023-04-12T10:04:17.468Z,17.52
2023-04-12T10:05:17.586Z,17.49
2023-04-12T10:06:17.326Z,17.77
2023-04-12T10:07:17.323Z,18.02
2023-04-12T10:08:17.386Z,18.32
2023-04-12T10:09:17.309Z,18.55
2023-04-12T10:10:17.708Z,18.39
2023-04-12T10:11:17.305Z,18.48
2023-04-12T10:12:17.256Z,18.26
2023-04-12T10:13:17.248Z,18.30
2023-04-12T10:14:17.757Z,18.18
2023-04-12T10:15:18.022Z,18.47
2023-04-12T10:16:17.250Z,18.62
2023-04-12T10:17:17.221Z,18.67
2023-04-12T10:18:17.238Z,18.67
2023-04-12T10:19:17.179Z,18.94
2023-04-12T10:20:17.321Z,19.23
2023-04-12T10:21:17.167Z,19.48
2023-04-12T10:22:17.169Z,19.21
2023-04-12T10:23:17.153Z,18.84
2023-04-12T10:24:17.140Z,18.66
2023-04-12T10:25:17.149Z,18.52
2023-04-12T10:26:17.107Z,18.45
2023-04-12T10:27:17.129Z,18.12
2023-04-12T10:28:17.108Z,17.52
2023-04-12T10:29:17.090Z,17.70
2023-04-12T10:30:17.067Z,18.00
2023-04-12T10:31:17.089Z,17.90
2023-04-12T10:32:17.032Z,17.79
2023-04-12T10:33:17.238Z,18.14
2023-04-12T10:34:17.023Z,18.54
2023-04-12T10:35:17.006Z,18.58
2023-04-12T10:36:17.044Z,18.55
2023-04-12T10:37:17.044Z,18.65
2023-04-12T10:38:16.989Z,18.94
2023-04-12T10:39:16.972Z,19.00
2023-04-12T10:40:16.983Z,19.07
2023-04-12T10:41:17.006Z,18.78
2023-04-12T10:42:16.937Z,18.95
2023-04-12T10:43:16.970Z,18.75
2023-04-12T10:44:16.952Z,18.51
2023-04-12T10:45:17.200Z,18.62
2023-04-12T10:46:16.934Z,18.60
2023-04-12T10:47:16.948Z,18.48
2023-04-12T10:48:16.919Z,18.23
2023-04-12T10:49:16.907Z,18.35
2023-04-12T10:50:17.182Z,18.47
2023-04-12T10:51:16.849Z,18.66
2023-04-12T10:52:16.846Z,18.92
2023-04-12T10:53:16.829Z,19.51
2023-04-12T10:54:17.649Z,19.84
2023-04-12T10:55:16.812Z,19.99
2023-04-12T10:56:16.795Z,19.83
2023-04-12T10:57:16.815Z,20.03
2023-04-12T10:58:16.816Z,19.74
2023-04-12T10:59:16.852Z,19.91
2023-04-12T11:00:16.937Z,20.13
2023-04-12T11:01:16.823Z,19.83
2023-04-12T11:02:16.961Z,19.84
2023-04-12T11:03:16.937Z,20.06
2023-04-12T11:04:17.242Z,19.71
2023-04-12T11:05:16.715Z,19.73
2023-04-12T11:06:26.932Z,20.03
2023-04-12T11:07:17.680Z,20.38
2023-04-12T11:08:16.680Z,20.36
2023-04-12T11:09:16.650Z,20.31
2023-04-12T11:10:16.689Z,20.50
2023-04-12T11:11:16.623Z,20.28
2023-04-12T11:12:16.738Z,20.13
2023-04-12T11:13:16.622Z,19.95
2023-04-12T11:14:16.603Z,20.11
2023-04-12T11:15:16.589Z,20.16
2023-04-12T11:16:16.642Z,19.80
2023-04-12T11:17:16.702Z,19.56
2023-04-12T11:18:16.626Z,19.51
2023-04-12T11:19:16.546Z,19.33
2023-04-12T11:20:16.537Z,19.39
2023-04-12T11:21:16.522Z,19.58
2023-04-12T11:22:16.644Z,19.32
2023-04-12T11:23:16.501Z,19.29
2023-04-12T11:24:16.512Z,18.84
2023-04-12T11:25:16.466Z,18.81
2023-04-12T11:26:16.476Z,18.85
2023-04-12T11:27:16.483Z,19.00
2023-04-12T11:28:27.848Z,19.33
2023-04-12T11:29:17.431Z,19.56
2023-04-12T11:30:16.427Z,19.54
2023-04-12T11:31:16.434Z,19.18
2023-04-12T11:32:16.542Z,19.10
2023-04-12T11:33:16.435Z,19.00
2023-04-12T11:34:16.382Z,18.99
2023-04-12T11:35:16.387Z,18.95
2023-04-12T11:36:16.357Z,19.32
2023-04-12T11:37:16.343Z,19.36
2023-04-12T11:38:16.610Z,19.21
2023-04-12T11:39:16.330Z,19.26
2023-04-12T11:40:16.326Z,19.31
2023-04-12T11:41:16.306Z,19.08
2023-04-12T11:42:16.297Z,19.04
2023-04-12T11:43:17.097Z,19.08
2023-04-12T11:44:16.279Z,19.08
2023-04-12T11:45:18.253Z,19.25
2023-04-12T11:46:16.322Z,19.36
2023-04-12T11:47:16.234Z,19.50
2023-04-12T11:48:16.359Z,19.77
2023-04-12T11:49:16.249Z,19.94
2023-04-12T11:50:16.221Z,20.03
2023-04-12T11:51:16.194Z,20.17
2023-04-12T11:52:16.192Z,20.16
2023-04-12T11:53:16.397Z,20.41
2023-04-12T11:54:16.192Z,20.50
2023-04-12T11:55:16.164Z,20.35
2023-04-12T11:56:16.144Z,19.80
2023-04-12T11:57:16.126Z,19.41
2023-04-12T11:58:16.169Z,18.76
2023-04-12T11:59:16.114Z,18.69
2023-04-12T12:00:16.107Z,18.66
2023-04-12T12:01:16.119Z,18.55
2023-04-12T12:02:22.608Z,18.45
2023-04-12T12:03:17.240Z,18.33
2023-04-12T12:04:16.331Z,18.14
2023-04-12T12:05:16.285Z,17.86
2023-04-12T12:06:16.669Z,17.75
2023-04-12T12:07:16.347Z,17.66
2023-04-12T12:08:16.013Z,17.58
2023-04-12T12:09:16.014Z,17.55
2023-04-12T12:10:24.344Z,17.51
2023-04-12T12:11:16.996Z,17.41
2023-04-12T12:12:15.985Z,17.59
2023-04-12T12:13:15.965Z,17.79
2023-04-12T12:14:15.955Z,17.89
2023-04-12T12:15:15.943Z,17.96
2023-04-12T12:16:15.988Z,17.92
2023-04-12T12:17:16.726Z,17.72
2023-04-12T12:18:16.727Z,17.66
2023-04-12T12:19:15.909Z,17.51
2023-04-12T12:20:15.893Z,17.31
2023-04-12T12:21:15.874Z,17.21
2023-04-12T12:22:15.878Z,17.03
2023-04-12T12:23:15.860Z,16.98
2023-04-12T12:24:15.869Z,17.01
2023-04-12T12:25:15.829Z,16.98
2023-04-12T12:26:19.253Z,16.81
2023-04-12T12:27:15.845Z,16.64
2023-04-12T12:28:15.946Z,16.66
2023-04-12T12:29:15.792Z,16.64
2023-04-12T12:30:15.780Z,16.70
2023-04-12T12:31:15.804Z,16.76
2023-04-12T12:32:15.765Z,16.71
2023-04-12T12:33:15.745Z,16.78
2023-04-12T12:34:15.741Z,16.71
2023-04-12T12:35:15.723Z,16.67
2023-04-12T12:36:15.755Z,16.66
2023-04-12T12:37:15.721Z,16.64
2023-04-12T12:38:15.696Z,16.60
2023-04-12T12:39:15.684Z,16.58
2023-04-12T12:40:15.674Z,16.61
2023-04-12T12:41:15.663Z,16.71
2023-04-12T12:42:15.656Z,16.83
2023-04-12T12:43:15.640Z,16.97
2023-04-12T12:44:15.660Z,17.06
2023-04-12T12:45:15.624Z,17.14
2023-04-12T12:46:15.645Z,16.98
2023-04-12T12:47:15.692Z,17.06
2023-04-12T12:48:15.651Z,17.08
2023-04-12T12:49:15.586Z,17.01
2023-04-12T12:50:15.566Z,17.03
2023-04-12T12:51:15.551Z,16.96
2023-04-12T12:52:17.760Z,16.91
2023-04-12T12:53:15.528Z,16.98
2023-04-12T12:54:25.119Z,16.98
2023-04-12T12:55:16.517Z,16.98
2023-04-12T12:56:15.683Z,16.98
2023-04-12T12:57:15.500Z,17.14
2023-04-12T12:58:15.486Z,17.21
2023-04-12T12:59:15.458Z,17.15
2023-04-12T13:00:15.466Z,17.11
2023-04-12T13:01:15.455Z,17.30
2023-04-12T13:02:15.592Z,17.16
2023-04-12T13:03:15.713Z,17.23
2023-04-12T13:04:15.474Z,17.44
2023-04-12T13:05:16.329Z,17.51
2023-04-12T13:06:15.398Z,17.33